createdAt,value
2023-01-13T00:01:24.127Z,3.20
2023-01-13T00:03:51.017Z,3.90
2023-01-13T00:06:20.501Z,5.10
2023-01-13T00:08:51.062Z,4.20
2023-01-13T00:11:19.439Z,4.25
2023-01-13T00:13:46.477Z,2.28
2023-01-13T00:16:18.106Z,2.90
2023-01-13T00:18:45.750Z,2.78
2023-01-13T00:21:21.227Z,2.47
2023-01-13T00:23:48.045Z,2.60
2023-01-13T00:26:17.738Z,1.92
2023-01-13T00:28:44.325Z,3.00
2023-01-13T00:31:13.568Z,1.70
2023-01-13T00:33:40.235Z,1.80
2023-01-13T00:36:08.899Z,1.73
2023-01-13T00:38:36.565Z,1.92
2023-01-13T00:41:06.431Z,3.25
2023-01-13T00:43:34.714Z,2.35
2023-01-13T00:46:01.884Z,1.55
2023-01-13T00:48:29.030Z,1.65
2023-01-13T00:50:56.726Z,1.98
2023-01-13T00:53:24.244Z,1.30
2023-01-13T00:55:59.790Z,1.10
2023-01-13T00:58:26.453Z,1.85
2023-01-13T01:00:53.070Z,3.50
2023-01-13T01:03:19.638Z,1.42
2023-01-13T01:05:46.143Z,1.65
2023-01-13T01:08:12.680Z,2.55
2023-01-13T01:10:39.167Z,2.20
2023-01-13T01:13:05.692Z,1.75
2023-01-13T01:15:32.175Z,3.28
2023-01-13T01:17:58.681Z,2.00
2023-01-13T01:20:25.194Z,1.70
2023-01-13T01:22:51.691Z,1.85
2023-01-13T01:25:18.186Z,2.65
2023-01-13T01:27:44.663Z,1.50
2023-01-13T01:30:11.704Z,1.50
2023-01-13T01:32:38.181Z,2.35
2023-01-13T01:35:05.055Z,1.30
2023-01-13T01:37:31.572Z,1.75
2023-01-13T01:39:58.030Z,1.67
2023-01-13T01:42:42.879Z,1.40
2023-01-13T01:45:18.727Z,2.03
2023-01-13T01:47:53.509Z,1.30
2023-01-13T01:50:20.426Z,1.83
2023-01-13T01:52:56.796Z,1.40
2023-01-13T01:55:29.144Z,1.35
2023-01-13T01:58:05.699Z,1.67
2023-01-13T02:00:32.251Z,2.58
2023-01-13T02:03:00.467Z,1.60
2023-01-13T02:05:27.129Z,1.40
2023-01-13T02:07:56.379Z,1.60
2023-01-13T02:10:26.163Z,1.48
2023-01-13T02:12:54.029Z,2.90
2023-01-13T02:15:25.561Z,2.45
2023-01-13T02:18:07.238Z,1.48
2023-01-13T02:20:57.465Z,1.77
2023-01-13T02:24:13.287Z,1.55
2023-01-13T02:26:39.708Z,2.03
2023-01-13T02:29:37.275Z,1.50
2023-01-13T02:32:13.124Z,2.15
2023-01-13T02:34:47.738Z,1.10
2023-01-13T02:37:19.359Z,1.52
2023-01-13T02:40:02.796Z,1.42
2023-01-13T02:43:06.204Z,0.98
2023-01-13T02:45:44.637Z,1.17
2023-01-13T02:48:13.964Z,1.35
2023-01-13T02:50:50.622Z,1.67
2023-01-13T02:53:30.147Z,10.13
2023-01-13T02:55:59.146Z,2.47
2023-01-13T02:58:28.759Z,1.63
2023-01-13T03:00:56.705Z,2.10
2023-01-13T03:03:23.691Z,1.88
2023-01-13T03:05:56.046Z,2.40
2023-01-13T03:08:52.507Z,2.25
2023-01-13T03:11:20.781Z,3.05
2023-01-13T03:14:10.389Z,4.82
2023-01-13T03:16:59.391Z,3.08
2023-01-13T03:19:55.093Z,1.30
2023-01-13T03:22:38.733Z,1.40
2023-01-13T03:25:32.269Z,2.30
2023-01-13T03:28:11.198Z,1.63
2023-01-13T03:30:44.870Z,1.63
2023-01-13T03:33:39.318Z,1.38
2023-01-13T03:36:10.529Z,2.15
2023-01-13T03:38:44.573Z,1.50
2023-01-13T03:41:21.686Z,1.30
2023-01-13T03:44:22.126Z,1.55
2023-01-13T03:46:58.317Z,1.33
2023-01-13T03:49:32.031Z,1.13
2023-01-13T03:52:04.936Z,1.40
2023-01-13T03:54:35.823Z,1.77
2023-01-13T03:57:09.397Z,1.33
2023-01-13T03:59:43.337Z,1.73
2023-01-13T04:02:30.853Z,1.58
2023-01-13T04:05:03.800Z,1.33
2023-01-13T04:08:20.440Z,1.70
2023-01-13T04:11:05.884Z,1.95
2023-01-13T04:13:40.288Z,1.80
2023-01-13T04:16:08.957Z,1.38
2023-01-13T04:18:38.347Z,2.15
2023-01-13T04:21:06.375Z,2.33
2023-01-13T04:23:33.000Z,1.45
2023-01-13T04:25:59.725Z,1.90
2023-01-13T04:28:26.848Z,2.00
2023-01-13T04:30:53.543Z,2.72
2023-01-13T04:33:20.459Z,2.85
2023-01-13T04:35:47.510Z,2.03
2023-01-13T04:38:16.724Z,1.80
2023-01-13T04:40:44.246Z,1.93
2023-01-13T04:43:11.297Z,2.58
2023-01-13T04:45:37.924Z,2.10
2023-01-13T04:48:04.632Z,2.47
2023-01-13T04:50:31.348Z,2.67
2023-01-13T04:52:57.922Z,2.72
2023-01-13T04:55:25.068Z,2.63
2023-01-13T04:57:51.997Z,2.80
2023-01-13T05:00:21.162Z,2.00
2023-01-13T05:02:50.772Z,2.93
2023-01-13T05:05:18.077Z,1.85
2023-01-13T05:07:44.700Z,1.38
2023-01-13T05:10:11.670Z,1.38
2023-01-13T05:12:56.670Z,1.50
2023-01-13T05:15:41.622Z,2.10
2023-01-13T05:18:08.715Z,2.33
2023-01-13T05:20:35.300Z,3.00
2023-01-13T05:23:19.965Z,2.70
2023-01-13T05:25:48.016Z,2.63
2023-01-13T05:28:15.230Z,3.28
2023-01-13T05:30:46.000Z,1.90
2023-01-13T05:33:17.819Z,2.50
2023-01-13T05:35:46.286Z,1.63
2023-01-13T05:38:13.504Z,1.80
2023-01-13T05:40:59.756Z,2.40
2023-01-13T05:43:27.590Z,2.20
2023-01-13T05:46:06.083Z,5.93
2023-01-13T05:48:33.867Z,6.90
2023-01-13T05:51:02.239Z,7.05
2023-01-13T05:53:29.491Z,8.32
2023-01-13T05:55:56.329Z,5.32
2023-01-13T05:58:25.442Z,6.68
2023-01-13T06:00:52.378Z,9.45
2023-01-13T06:03:20.252Z,6.65
2023-01-13T06:05:48.584Z,4.47
2023-01-13T06:08:15.171Z,6.57
2023-01-13T06:10:41.759Z,4.45
2023-01-13T06:13:08.322Z,6.18
2023-01-13T06:15:34.819Z,4.00
2023-01-13T06:18:05.511Z,4.50
2023-01-13T06:20:32.297Z,3.85
2023-01-13T06:22:59.856Z,4.65
2023-01-13T06:25:26.316Z,4.63
2023-01-13T06:27:54.517Z,4.78
2023-01-13T06:30:21.045Z,4.72
2023-01-13T06:32:53.970Z,5.20
2023-01-13T06:35:25.451Z,4.95
2023-01-13T06:37:54.163Z,6.43
2023-01-13T06:40:21.095Z,7.00
2023-01-13T06:43:06.087Z,4.50
2023-01-13T06:45:32.797Z,2.97
2023-01-13T06:48:00.744Z,1.42
2023-01-13T06:50:28.856Z,2.65
2023-01-13T06:52:55.347Z,1.50
2023-01-13T06:55:21.922Z,0.80
2023-01-13T06:57:54.481Z,1.30
2023-01-13T07:00:22.603Z,1.10
2023-01-13T07:02:49.540Z,1.20
2023-01-13T07:05:17.017Z,1.23
2023-01-13T07:07:43.748Z,1.00
2023-01-13T07:10:13.214Z,1.58
2023-01-13T07:12:59.665Z,1.55
2023-01-13T07:15:27.398Z,1.58
2023-01-13T07:17:53.901Z,2.15
2023-01-13T07:20:20.411Z,5.70
2023-01-13T07:22:46.933Z,4.53
2023-01-13T07:25:13.491Z,2.70
2023-01-13T07:27:40.041Z,1.88
2023-01-13T07:30:07.686Z,1.30
2023-01-13T07:32:34.581Z,2.28
2023-01-13T07:35:05.466Z,1.33
2023-01-13T07:37:37.240Z,1.60
2023-01-13T07:40:04.903Z,1.20
2023-01-13T07:42:50.233Z,1.05
2023-01-13T07:45:16.920Z,1.52
2023-01-13T07:47:43.446Z,2.42
2023-01-13T07:50:10.577Z,2.95
2023-01-13T07:52:37.080Z,3.50
2023-01-13T07:55:03.655Z,3.28
2023-01-13T07:57:30.214Z,2.95
2023-01-13T07:59:56.781Z,1.73
2023-01-13T08:02:23.530Z,1.80
2023-01-13T08:04:50.127Z,1.10
2023-01-13T08:07:16.641Z,1.13
2023-01-13T08:09:43.128Z,1.40
2023-01-13T08:12:27.912Z,2.08
2023-01-13T08:14:54.705Z,1.33
2023-01-13T08:17:21.262Z,1.90
2023-01-13T08:19:47.815Z,1.35
2023-01-13T08:22:14.531Z,1.25
2023-01-13T08:24:41.103Z,2.60
2023-01-13T08:27:07.658Z,1.38
2023-01-13T08:29:34.350Z,2.67
2023-01-13T08:32:00.911Z,1.13
2023-01-13T08:34:27.479Z,1.10
2023-01-13T08:36:54.012Z,0.95
2023-01-13T08:39:20.543Z,1.63
2023-01-13T08:41:56.056Z,1.38
2023-01-13T08:44:24.167Z,1.30
2023-01-13T08:46:50.773Z,1.08
2023-01-13T08:49:17.896Z,1.35
2023-01-13T08:51:44.938Z,1.58
2023-01-13T08:54:12.072Z,2.25
2023-01-13T08:56:39.176Z,1.67
2023-01-13T08:59:06.069Z,0.82
2023-01-13T09:01:34.098Z,2.22
2023-01-13T09:04:00.763Z,0.95
2023-01-13T09:06:27.360Z,1.38
2023-01-13T09:08:53.925Z,1.52
2023-01-13T09:11:47.971Z,4.88
2023-01-13T09:14:34.969Z,2.95
2023-01-13T09:17:02.239Z,1.70
2023-01-13T09:19:29.342Z,1.27
2023-01-13T09:21:57.114Z,2.53
2023-01-13T09:24:24.497Z,2.40
2023-01-13T09:26:51.281Z,2.92
2023-01-13T09:29:18.079Z,3.78
2023-01-13T09:31:44.820Z,2.40
2023-01-13T09:34:38.633Z,2.42
2023-01-13T09:37:06.923Z,2.92
2023-01-13T09:39:34.421Z,2.72
2023-01-13T09:42:49.408Z,2.72
2023-01-13T09:45:19.998Z,3.20
2023-01-13T09:48:05.331Z,13.75
2023-01-13T09:50:38.267Z,2.45
2023-01-13T09:53:12.018Z,2.20
2023-01-13T09:55:38.544Z,3.00
2023-01-13T09:58:14.714Z,1.67
2023-01-13T10:01:00.348Z,1.13
2023-01-13T10:03:30.292Z,6.18
2023-01-13T10:06:22.409Z,12.55
2023-01-13T10:08:49.473Z,5.28
2023-01-13T10:11:43.135Z,5.35
2023-01-13T10:14:24.007Z,3.80
2023-01-13T10:17:20.946Z,19.27
2023-01-13T10:19:54.006Z,11.98
2023-01-13T10:23:08.640Z,2.60
2023-01-13T10:25:35.963Z,2.42
2023-01-13T10:28:09.452Z,1.88
2023-01-13T10:30:40.266Z,2.05
2023-01-13T10:33:12.091Z,1.83
2023-01-13T10:36:00.322Z,1.67
2023-01-13T10:38:27.039Z,1.85
2023-01-13T10:40:57.135Z,2.42
2023-01-13T10:46:02.406Z,2.03
2023-01-13T10:48:56.092Z,7.47
2023-01-13T10:51:28.786Z,5.28
2023-01-13T10:53:59.657Z,4.78
2023-01-13T10:56:30.552Z,2.65
2023-01-13T10:59:10.278Z,1.65
2023-01-13T11:01:37.710Z,2.05
2023-01-13T11:04:27.738Z,1.80
2023-01-13T11:06:54.610Z,1.50
2023-01-13T11:09:22.654Z,4.50
2023-01-13T11:11:55.835Z,1.23
2023-01-13T11:14:45.315Z,0.70
2023-01-13T11:17:28.797Z,1.80
2023-01-13T11:20:05.598Z,3.08
2023-01-13T11:22:37.665Z,0.60
2023-01-13T11:25:10.658Z,1.55
2023-01-13T11:27:53.136Z,1.02
2023-01-13T11:30:34.735Z,0.70
2023-01-13T11:33:10.298Z,1.85
2023-01-13T11:36:20.210Z,1.10
2023-01-13T11:41:45.459Z,0.73
2023-01-13T11:44:28.384Z,0.80
2023-01-13T11:46:55.087Z,1.00
2023-01-13T11:49:28.621Z,0.52
2023-01-13T11:52:16.177Z,1.05
2023-01-13T11:55:00.616Z,1.13
2023-01-13T11:57:35.407Z,1.10
2023-01-13T12:00:17.222Z,1.90
2023-01-13T12:03:05.107Z,1.02
2023-01-13T12:05:39.438Z,1.45
2023-01-13T12:08:26.106Z,1.20
2023-01-13T12:11:11.857Z,1.00
2023-01-13T12:13:53.290Z,1.23
2023-01-13T12:16:26.757Z,3.28
2023-01-13T12:19:21.735Z,0.90
2023-01-13T12:21:57.045Z,2.25
2023-01-13T12:24:31.194Z,1.52
2023-01-13T12:27:02.980Z,1.15
2023-01-13T12:29:36.182Z,1.27
2023-01-13T12:32:07.044Z,0.80
2023-01-13T12:35:06.498Z,1.73
2023-01-13T12:37:44.811Z,2.22
2023-01-13T12:40:38.850Z,1.15
2023-01-13T12:43:38.816Z,1.40
2023-01-13T12:46:23.574Z,3.00
2023-01-13T12:49:02.006Z,2.15
2023-01-13T12:51:37.615Z,6.43
2023-01-13T12:54:30.233Z,7.05
2023-01-13T12:57:00.157Z,9.55
2023-01-13T12:59:26.637Z,11.18
2023-01-13T13:02:11.347Z,4.50
2023-01-13T13:04:49.504Z,1.30
2023-01-13T13:07:23.545Z,1.60
2023-01-13T13:09:56.434Z,1.63
2023-01-13T13:12:50.737Z,1.70
2023-01-13T13:15:26.409Z,1.20
2023-01-13T13:17:59.263Z,0.80
2023-01-13T13:20:58.163Z,1.05
2023-01-13T13:23:37.073Z,2.22
2023-01-13T13:26:12.302Z,2.50
2023-01-13T13:28:46.251Z,2.20
2023-01-13T13:31:30.247Z,1.25
2023-01-13T13:34:23.020Z,0.52
2023-01-13T13:37:09.922Z,0.85
2023-01-13T13:39:55.307Z,1.30
2023-01-13T13:42:54.130Z,1.30
2023-01-13T13:45:42.827Z,2.10
2023-01-13T13:48:25.875Z,2.55
2023-01-13T13:51:01.744Z,2.03
2023-01-13T13:53:36.973Z,1.40
2023-01-13T13:56:14.737Z,0.82
2023-01-13T13:58:41.402Z,3.28
2023-01-13T14:01:08.221Z,4.78
2023-01-13T14:03:39.730Z,1.95
2023-01-13T14:06:07.689Z,1.25
2023-01-13T14:08:37.476Z,2.75
2023-01-13T14:11:27.244Z,1.80
2023-01-13T14:14:13.909Z,3.22
2023-01-13T14:16:40.705Z,6.32
2023-01-13T14:19:25.996Z,3.50
2023-01-13T14:21:53.673Z,2.70
2023-01-13T14:24:22.466Z,2.75
2023-01-13T14:26:54.761Z,1.75
2023-01-13T14:29:23.796Z,0.80
2023-01-13T14:31:53.043Z,1.15
2023-01-13T14:34:31.417Z,1.45
2023-01-13T14:37:00.562Z,0.77
2023-01-13T14:39:39.789Z,2.20
2023-01-13T14:42:16.466Z,2.20
2023-01-13T14:44:49.154Z,2.83
2023-01-13T14:47:28.968Z,1.30
2023-01-13T14:50:07.536Z,3.40
2023-01-13T14:52:36.854Z,2.95
2023-01-13T14:55:10.225Z,0.55
2023-01-13T14:57:41.714Z,3.28
2023-01-13T15:00:14.056Z,1.70
2023-01-13T15:03:08.031Z,2.42
2023-01-13T15:05:39.498Z,2.17
2023-01-13T15:08:12.217Z,0.75
2023-01-13T15:10:48.521Z,1.52
2023-01-13T15:13:26.326Z,2.50
2023-01-13T15:15:55.913Z,0.65
2023-01-13T15:18:22.476Z,0.60
2023-01-13T15:20:50.925Z,1.60
2023-01-13T15:23:19.193Z,0.80
2023-01-13T15:25:47.067Z,0.70
2023-01-13T15:28:20.840Z,1.00
2023-01-13T15:30:48.276Z,1.90
2023-01-13T15:33:15.941Z,1.98
2023-01-13T15:35:45.967Z,1.90
2023-01-13T15:38:18.501Z,2.80
2023-01-13T15:40:46.281Z,2.20
2023-01-13T15:43:36.233Z,2.55
2023-01-13T15:46:24.837Z,1.67
2023-01-13T15:48:53.119Z,1.27
2023-01-13T15:51:21.668Z,2.72
2023-01-13T15:53:48.192Z,1.45
2023-01-13T15:56:26.474Z,1.55
2023-01-13T15:58:53.056Z,8.50
2023-01-13T16:01:19.782Z,2.45
2023-01-13T16:03:46.444Z,2.42
2023-01-13T16:06:24.445Z,1.83
2023-01-13T16:08:50.922Z,2.03
2023-01-13T16:11:17.431Z,1.60
2023-01-13T16:13:43.977Z,2.92
2023-01-13T16:16:27.265Z,3.30
2023-01-13T16:18:54.516Z,1.58
2023-01-13T16:21:21.802Z,1.55
2023-01-13T16:23:49.530Z,3.00
2023-01-13T16:26:21.665Z,2.97
2023-01-13T16:28:49.451Z,2.72
2023-01-13T16:31:19.657Z,1.85
2023-01-13T16:33:46.396Z,2.08
2023-01-13T16:36:17.823Z,0.90
2023-01-13T16:38:44.399Z,0.75
2023-01-13T16:41:10.913Z,2.35
2023-01-13T16:46:45.506Z,3.17
2023-01-13T16:49:14.580Z,2.08
2023-01-13T16:51:41.664Z,3.95
2023-01-13T16:54:08.207Z,2.83
2023-01-13T16:56:36.552Z,4.05
2023-01-13T16:59:14.088Z,9.07
2023-01-13T17:01:43.309Z,2.13
2023-01-13T17:04:15.461Z,1.70
2023-01-13T17:06:47.263Z,1.35
2023-01-13T17:09:19.534Z,2.70
2023-01-13T17:11:46.045Z,4.28
2023-01-13T17:14:18.516Z,7.43
2023-01-13T17:16:46.087Z,7.93
2023-01-13T17:19:12.809Z,12.38
2023-01-13T17:21:39.453Z,6.20
2023-01-13T17:24:07.853Z,6.53
2023-01-13T17:26:37.149Z,3.30
2023-01-13T17:29:11.757Z,3.22
2023-01-13T17:31:38.403Z,2.33
2023-01-13T17:34:05.098Z,11.02
2023-01-13T17:36:32.337Z,9.52
2023-01-13T17:38:59.391Z,5.68
2023-01-13T17:41:26.613Z,4.03
2023-01-13T17:43:53.633Z,3.85
2023-01-13T17:46:22.855Z,4.18
2023-01-13T17:48:51.204Z,4.67
2023-01-13T17:51:19.273Z,3.15
2023-01-13T17:53:45.767Z,3.53
2023-01-13T17:56:14.741Z,3.33
2023-01-13T17:58:41.987Z,3.72
2023-01-13T18:01:17.407Z,2.15
2023-01-13T18:03:44.332Z,2.53
2023-01-13T18:06:23.572Z,4.03
2023-01-13T18:08:50.932Z,3.67
2023-01-13T18:11:19.831Z,2.13
2023-01-13T18:13:51.398Z,2.20
2023-01-13T18:16:19.337Z,4.18
2023-01-13T18:18:48.675Z,4.75
2023-01-13T18:21:42.521Z,5.05
2023-01-13T18:24:32.374Z,3.30
2023-01-13T18:27:17.684Z,4.07
2023-01-13T18:29:45.206Z,2.83
2023-01-13T18:32:12.357Z,2.85
2023-01-13T18:34:39.389Z,4.20
2023-01-13T18:37:07.518Z,4.03
2023-01-13T18:39:34.163Z,5.05
2023-01-13T18:42:19.226Z,5.25
2023-01-13T18:44:51.895Z,6.20
2023-01-13T18:47:19.200Z,3.25
2023-01-13T18:49:46.483Z,4.57
2023-01-13T18:52:13.079Z,4.35
2023-01-13T18:54:39.659Z,5.18
2023-01-13T18:57:06.177Z,4.38
2023-01-13T18:59:34.546Z,4.85
2023-01-13T19:02:02.461Z,4.93
2023-01-13T19:04:29.684Z,4.97
2023-01-13T19:07:00.799Z,4.03
2023-01-13T19:09:29.260Z,4.03
2023-01-13T19:11:57.103Z,3.80
2023-01-13T19:14:42.163Z,4.65
2023-01-13T19:17:12.490Z,4.70
2023-01-13T19:19:43.969Z,2.85
2023-01-13T19:22:11.907Z,2.97
2023-01-13T19:24:41.955Z,3.85
2023-01-13T19:29:35.793Z,4.88
2023-01-13T19:32:02.708Z,6.15
2023-01-13T19:34:29.373Z,3.97
2023-01-13T19:36:55.970Z,2.63
2023-01-13T19:39:23.107Z,3.35
2023-01-13T19:42:08.364Z,1.90
2023-01-13T19:44:55.114Z,2.60
2023-01-13T19:47:21.719Z,3.83
2023-01-13T19:49:48.272Z,2.25
2023-01-13T19:52:14.853Z,2.65
2023-01-13T19:54:41.396Z,2.95
2023-01-13T19:57:07.960Z,2.50
2023-01-13T19:59:35.547Z,3.17
2023-01-13T20:02:03.958Z,3.05
2023-01-13T20:04:38.257Z,1.95
2023-01-13T20:07:06.284Z,2.08
2023-01-13T20:09:34.294Z,2.03
2023-01-13T20:12:13.733Z,5.05
2023-01-13T20:14:41.055Z,3.33
2023-01-13T20:17:07.884Z,4.30
2023-01-13T20:19:34.376Z,9.77
2023-01-13T20:22:00.927Z,12.77
2023-01-13T20:24:27.514Z,8.95
2023-01-13T20:26:55.119Z,8.85
2023-01-13T20:29:22.382Z,8.18
2023-01-13T20:31:49.871Z,5.65
2023-01-13T20:34:19.965Z,6.47
2023-01-13T20:39:22.784Z,7.35
2023-01-13T20:42:07.883Z,8.10
2023-01-13T20:44:34.959Z,8.18
2023-01-13T20:47:02.905Z,7.97
2023-01-13T20:50:11.414Z,7.72
2023-01-13T20:52:38.149Z,4.30
2023-01-13T20:55:06.714Z,3.50
2023-01-13T20:57:33.302Z,2.33
2023-01-13T21:00:00.116Z,1.90
2023-01-13T21:02:26.730Z,1.35
2023-01-13T21:04:53.314Z,2.53
2023-01-13T21:07:19.843Z,2.67
2023-01-13T21:09:46.340Z,7.18
2023-01-13T21:12:33.336Z,1.35
2023-01-13T21:15:18.434Z,1.20
2023-01-13T21:18:04.616Z,1.85
2023-01-13T21:20:33.536Z,1.52
2023-01-13T21:23:02.231Z,2.00
2023-01-13T21:25:28.805Z,2.65
2023-01-13T21:27:59.418Z,3.75
2023-01-13T21:30:25.917Z,1.67
2023-01-13T21:32:52.442Z,2.50
2023-01-13T21:35:18.979Z,1.67
2023-01-13T21:37:45.535Z,1.30
2023-01-13T21:40:14.129Z,1.98
2023-01-13T21:42:59.341Z,1.25
2023-01-13T21:45:44.763Z,1.27
2023-01-13T21:48:11.381Z,1.55
2023-01-13T21:50:38.275Z,1.65
2023-01-13T21:53:05.790Z,2.20
2023-01-13T21:55:32.891Z,1.38
2023-01-13T21:58:12.897Z,1.25
2023-01-13T22:00:44.267Z,0.68
2023-01-13T22:03:12.942Z,1.05
2023-01-13T22:05:39.898Z,1.98
2023-01-13T22:08:07.345Z,0.90
2023-01-13T22:10:34.433Z,1.05
2023-01-13T22:13:22.456Z,1.10
2023-01-13T22:15:49.024Z,3.03
2023-01-13T22:18:17.997Z,3.83
2023-01-13T22:20:44.846Z,0.70
2023-01-13T22:23:11.341Z,0.75
2023-01-13T22:25:37.832Z,0.60
2023-01-13T22:28:06.093Z,1.85
2023-01-13T22:30:33.367Z,0.70
2023-01-13T22:33:02.385Z,1.42
2023-01-13T22:35:28.882Z,0.98
2023-01-13T22:37:55.510Z,0.80
2023-01-13T22:40:21.998Z,1.05
2023-01-13T22:42:48.495Z,1.08
2023-01-13T22:45:15.187Z,0.63
2023-01-13T22:47:41.937Z,1.83
2023-01-13T22:50:09.434Z,1.95
2023-01-13T22:52:36.432Z,2.33
2023-01-13T22:55:04.291Z,0.80
2023-01-13T22:57:36.038Z,1.40
2023-01-13T23:00:06.230Z,0.93
2023-01-13T23:02:34.553Z,2.08
2023-01-13T23:05:01.409Z,2.35
2023-01-13T23:07:28.001Z,1.92
2023-01-13T23:09:54.539Z,1.13
2023-01-13T23:13:37.547Z,3.65
2023-01-13T23:15:37.118Z,2.45
2023-01-13T23:18:03.789Z,1.38
2023-01-13T23:20:30.779Z,1.25
2023-01-13T23:23:00.750Z,2.17
2023-01-13T23:25:27.322Z,1.27
2023-01-13T23:27:53.802Z,2.25
2023-01-13T23:30:20.512Z,1.70
2023-01-13T23:32:47.000Z,1.83
2023-01-13T23:35:13.582Z,2.60
2023-01-13T23:37:40.099Z,1.65
2023-01-13T23:40:06.993Z,1.83
2023-01-13T23:42:33.633Z,1.45
2023-01-13T23:45:00.156Z,1.38
2023-01-13T23:47:27.532Z,1.35
2023-01-13T23:49:54.048Z,1.05
2023-01-13T23:52:20.579Z,4.53
2023-01-13T23:54:47.171Z,2.83
2023-01-13T23:57:13.719Z,3.50
2023-01-13T23:59:40.211Z,5.82
